sensor_id;sensor_type;location;lat;lon;timestamp;pressure;altitude;pressure_sealevel;temperature;humidity
48848;BME280;36611;51.638;5.784;2023-04-20T00:02:01;102194.13;;;22.87;36.43
48848;BME280;36611;51.638;5.784;2023-04-20T00:04:28;102185.91;;;22.87;36.32
48848;BME280;36611;51.638;5.784;2023-04-20T00:06:55;102186.78;;;22.88;36.44
48848;BME280;36611;51.638;5.784;2023-04-20T00:09:25;102182.31;;;22.87;36.11
48848;BME280;36611;51.638;5.784;2023-04-20T00:11:52;102181.47;;;22.86;36.34
48848;BME280;36611;51.638;5.784;2023-04-20T00:14:19;102167.75;;;22.86;36.25
48848;BME280;36611;51.638;5.784;2023-04-20T00:16:47;102167.75;;;22.86;36.26
48848;BME280;36611;51.638;5.784;2023-04-20T00:19:14;102155.94;;;22.86;36.10
48848;BME280;36611;51.638;5.784;2023-04-20T00:21:41;102149.59;;;22.85;36.40
48848;BME280;36611;51.638;5.784;2023-04-20T00:24:08;102145.16;;;22.84;36.20
48848;BME280;36611;51.638;5.784;2023-04-20T00:26:34;102143.28;;;22.85;36.36
48848;BME280;36611;51.638;5.784;2023-04-20T00:29:01;102139.66;;;22.84;36.53
48848;BME280;36611;51.638;5.784;2023-04-20T00:31:30;102137.78;;;22.85;36.29
48848;BME280;36611;51.638;5.784;2023-04-20T00:33:57;102128.00;;;22.82;36.11
48848;BME280;36611;51.638;5.784;2023-04-20T00:36:23;102130.59;;;22.83;36.23
48848;BME280;36611;51.638;5.784;2023-04-20T00:38:50;102125.09;;;22.83;36.11
48848;BME280;36611;51.638;5.784;2023-04-20T00:41:16;102122.38;;;22.83;36.39
48848;BME280;36611;51.638;5.784;2023-04-20T00:43:51;102119.63;;;22.83;36.20
48848;BME280;36611;51.638;5.784;2023-04-20T00:46:18;102107.41;;;22.78;36.38
48848;BME280;36611;51.638;5.784;2023-04-20T00:48:45;102111.16;;;22.77;36.30
48848;BME280;36611;51.638;5.784;2023-04-20T00:51:12;102112.88;;;22.78;36.53
48848;BME280;36611;51.638;5.784;2023-04-20T00:53:39;102111.84;;;22.79;36.18
48848;BME280;36611;51.638;5.784;2023-04-20T00:56:06;102111.00;;;22.78;36.19
48848;BME280;36611;51.638;5.784;2023-04-20T00:58:33;102097.31;;;22.78;36.25
48848;BME280;36611;51.638;5.784;2023-04-20T01:01:00;102092.84;;;22.77;36.74
48848;BME280;36611;51.638;5.784;2023-04-20T01:03:26;102085.47;;;22.78;36.25
48848;BME280;36611;51.638;5.784;2023-04-20T01:05:53;102075.38;;;22.78;36.35
48848;BME280;36611;51.638;5.784;2023-04-20T01:08:24;102067.16;;;22.78;36.41
48848;BME280;36611;51.638;5.784;2023-04-20T01:10:51;102070.06;;;22.77;36.36
48848;BME280;36611;51.638;5.784;2023-04-20T01:13:17;102066.47;;;22.76;36.20
48848;BME280;36611;51.638;5.784;2023-04-20T01:15:44;102062.72;;;22.77;36.20
48848;BME280;36611;51.638;5.784;2023-04-20T01:18:10;102058.25;;;22.76;36.30
48848;BME280;36611;51.638;5.784;2023-04-20T01:20:37;102051.75;;;22.77;36.07
48848;BME280;36611;51.638;5.784;2023-04-20T01:23:04;102054.50;;;22.77;36.47
48848;BME280;36611;51.638;5.784;2023-04-20T01:25:30;102047.28;;;22.76;36.34
48848;BME280;36611;51.638;5.784;2023-04-20T01:27:57;102036.34;;;22.76;36.05
48848;BME280;36611;51.638;5.784;2023-04-20T01:30:23;102037.19;;;22.77;36.21
48848;BME280;36611;51.638;5.784;2023-04-20T01:32:50;102031.88;;;22.75;36.12
48848;BME280;36611;51.638;5.784;2023-04-20T01:35:17;102021.94;;;22.74;36.25
48848;BME280;36611;51.638;5.784;2023-04-20T01:37:43;102021.78;;;22.76;36.39
48848;BME280;36611;51.638;5.784;2023-04-20T01:40:12;102009.97;;;22.75;36.17
48848;BME280;36611;51.638;5.784;2023-04-20T01:42:39;102011.00;;;22.74;36.21
48848;BME280;36611;51.638;5.784;2023-04-20T01:45:06;102007.41;;;22.74;36.44
48848;BME280;36611;51.638;5.784;2023-04-20T01:47:33;102005.53;;;22.74;36.04
48848;BME280;36611;51.638;5.784;2023-04-20T01:50:00;102001.06;;;22.73;36.22
48848;BME280;36611;51.638;5.784;2023-04-20T01:52:27;102002.94;;;22.73;36.31
48848;BME280;36611;51.638;5.784;2023-04-20T01:54:53;101994.72;;;22.73;36.41
48848;BME280;36611;51.638;5.784;2023-04-20T01:57:23;101990.28;;;22.72;36.35
48848;BME280;36611;51.638;5.784;2023-04-20T01:59:50;101990.28;;;22.72;36.52
48848;BME280;36611;51.638;5.784;2023-04-20T02:02:16;101994.03;;;22.71;36.38
48848;BME280;36611;51.638;5.784;2023-04-20T02:04:43;101994.88;;;22.71;36.41
48848;BME280;36611;51.638;5.784;2023-04-20T02:07:10;101988.53;;;22.71;36.32
48848;BME280;36611;51.638;5.784;2023-04-20T02:09:37;101983.22;;;22.69;36.30
48848;BME280;36611;51.638;5.784;2023-04-20T02:12:04;101982.22;;;22.70;36.15
48848;BME280;36611;51.638;5.784;2023-04-20T02:14:30;101985.81;;;22.71;36.23
48848;BME280;36611;51.638;5.784;2023-04-20T02:16:57;101985.97;;;22.69;35.99
48848;BME280;36611;51.638;5.784;2023-04-20T02:19:24;101975.03;;;22.69;36.14
48848;BME280;36611;51.638;5.784;2023-04-20T02:21:51;101978.63;;;22.70;36.40
48848;BME280;36611;51.638;5.784;2023-04-20T02:24:17;101979.63;;;22.69;36.63
48848;BME280;36611;51.638;5.784;2023-04-20T02:26:44;101975.03;;;22.69;36.51
48848;BME280;36611;51.638;5.784;2023-04-20T02:29:10;101982.38;;;22.69;36.14
48848;BME280;36611;51.638;5.784;2023-04-20T02:31:37;101975.19;;;22.68;36.42
48848;BME280;36611;51.638;5.784;2023-04-20T02:34:03;101975.03;;;22.69;36.36
48848;BME280;36611;51.638;5.784;2023-04-20T02:36:31;101975.19;;;22.68;36.29
48848;BME280;36611;51.638;5.784;2023-04-20T02:38:58;101973.28;;;22.68;36.18
48848;BME280;36611;51.638;5.784;2023-04-20T02:41:25;101968.84;;;22.67;36.17
48848;BME280;36611;51.638;5.784;2023-04-20T02:43:52;101965.25;;;22.67;35.97
48848;BME280;36611;51.638;5.784;2023-04-20T02:46:19;101954.28;;;22.67;36.52
48848;BME280;36611;51.638;5.784;2023-04-20T02:48:46;101950.69;;;22.66;36.24
48848;BME280;36611;51.638;5.784;2023-04-20T02:51:13;101942.47;;;22.66;36.18
48848;BME280;36611;51.638;5.784;2023-04-20T02:53:43;101938.88;;;22.66;36.54
48848;BME280;36611;51.638;5.784;2023-04-20T02:56:18;101935.28;;;22.65;36.26
48848;BME280;36611;51.638;5.784;2023-04-20T02:58:50;101928.09;;;22.64;36.30
48848;BME280;36611;51.638;5.784;2023-04-20T03:01:28;101934.44;;;22.65;36.32
48848;BME280;36611;51.638;5.784;2023-04-20T03:04:02;101935.44;;;22.64;36.23
48848;BME280;36611;51.638;5.784;2023-04-20T03:06:33;101938.19;;;22.64;36.22
48848;BME280;36611;51.638;5.784;2023-04-20T03:09:04;101925.50;;;22.63;36.45
48848;BME280;36611;51.638;5.784;2023-04-20T03:11:54;101930.13;;;22.62;36.21
48848;BME280;36611;51.638;5.784;2023-04-20T03:14:38;101933.88;;;22.61;36.63
48848;BME280;36611;51.638;5.784;2023-04-20T03:17:04;101931.16;;;22.61;36.05
48848;BME280;36611;51.638;5.784;2023-04-20T03:19:32;101922.94;;;22.61;36.48
48848;BME280;36611;51.638;5.784;2023-04-20T03:21:58;101926.69;;;22.60;36.55
48848;BME280;36611;51.638;5.784;2023-04-20T03:24:25;101915.75;;;22.60;36.26
48848;BME280;36611;51.638;5.784;2023-04-20T03:26:53;101907.53;;;22.60;36.62
48848;BME280;36611;51.638;5.784;2023-04-20T03:29:30;101905.66;;;22.61;36.21
48848;BME280;36611;51.638;5.784;2023-04-20T03:31:58;101905.81;;;22.59;36.42
48848;BME280;36611;51.638;5.784;2023-04-20T03:34:24;101907.53;;;22.60;36.54
48848;BME280;36611;51.638;5.784;2023-04-20T03:36:52;101911.28;;;22.59;36.33
48848;BME280;36611;51.638;5.784;2023-04-20T03:39:19;101909.56;;;22.58;36.49
48848;BME280;36611;51.638;5.784;2023-04-20T03:41:46;101892.13;;;22.59;36.37
48848;BME280;36611;51.638;5.784;2023-04-20T03:44:12;101896.75;;;22.59;36.41
48848;BME280;36611;51.638;5.784;2023-04-20T03:46:40;101899.47;;;22.59;36.14
48848;BME280;36611;51.638;5.784;2023-04-20T03:49:06;101903.22;;;22.58;36.44
48848;BME280;36611;51.638;5.784;2023-04-20T03:51:33;101898.63;;;22.58;36.43
48848;BME280;36611;51.638;5.784;2023-04-20T03:53:59;101894.16;;;22.57;36.41
48848;BME280;36611;51.638;5.784;2023-04-20T03:56:27;101900.50;;;22.58;36.51
48848;BME280;36611;51.638;5.784;2023-04-20T03:58:55;101905.13;;;22.57;36.41
48848;BME280;36611;51.638;5.784;2023-04-20T04:01:24;101893.31;;;22.57;36.20
48848;BME280;36611;51.638;5.784;2023-04-20T04:03:51;101884.22;;;22.56;36.26
48848;BME280;36611;51.638;5.784;2023-04-20T04:06:18;101883.38;;;22.56;36.50
48848;BME280;36611;51.638;5.784;2023-04-20T04:08:44;101878.75;;;22.56;36.25
48848;BME280;36611;51.638;5.784;2023-04-20T04:11:11;101876.00;;;22.56;36.54
48848;BME280;36611;51.638;5.784;2023-04-20T04:13:38;101869.69;;;22.56;36.39
48848;BME280;36611;51.638;5.784;2023-04-20T04:16:07;101863.34;;;22.55;36.34
48848;BME280;36611;51.638;5.784;2023-04-20T04:18:34;101862.50;;;22.55;36.23
48848;BME280;36611;51.638;5.784;2023-04-20T04:21:06;101867.09;;;22.54;36.28
48848;BME280;36611;51.638;5.784;2023-04-20T04:23:36;101847.94;;;22.54;36.21
48848;BME280;36611;51.638;5.784;2023-04-20T04:26:12;101848.97;;;22.53;36.11
48848;BME280;36611;51.638;5.784;2023-04-20T04:28:42;101841.78;;;22.52;36.44
48848;BME280;36611;51.638;5.784;2023-04-20T04:31:17;101853.75;;;22.51;36.49
48848;BME280;36611;51.638;5.784;2023-04-20T04:33:45;101856.47;;;22.51;36.44
48848;BME280;36611;51.638;5.784;2023-04-20T04:36:20;101848.28;;;22.51;36.28
48848;BME280;36611;51.638;5.784;2023-04-20T04:38:47;101846.38;;;22.51;36.62
48848;BME280;36611;51.638;5.784;2023-04-20T04:41:14;101840.06;;;22.51;36.56
48848;BME280;36611;51.638;5.784;2023-04-20T04:43:42;101845.53;;;22.51;36.30
48848;BME280;36611;51.638;5.784;2023-04-20T04:46:18;101834.59;;;22.51;36.69
48848;BME280;36611;51.638;5.784;2023-04-20T04:48:46;101842.63;;;22.52;36.61
48848;BME280;36611;51.638;5.784;2023-04-20T04:51:12;101839.03;;;22.52;36.55
48848;BME280;36611;51.638;5.784;2023-04-20T04:53:39;101838.19;;;22.51;36.37
48848;BME280;36611;51.638;5.784;2023-04-20T04:56:10;101830.97;;;22.50;36.19
48848;BME280;36611;51.638;5.784;2023-04-20T04:58:38;101833.56;;;22.52;36.29
48848;BME280;36611;51.638;5.784;2023-04-20T05:01:04;101834.41;;;22.52;36.54
48848;BME280;36611;51.638;5.784;2023-04-20T05:03:31;101838.00;;;22.53;36.49
48848;BME280;36611;51.638;5.784;2023-04-20T05:05:58;101834.41;;;22.52;36.43
48848;BME280;36611;51.638;5.784;2023-04-20T05:08:24;101833.41;;;22.54;36.33
48848;BME280;36611;51.638;5.784;2023-04-20T05:10:51;101829.81;;;22.53;36.46
48848;BME280;36611;51.638;5.784;2023-04-20T05:13:17;101826.03;;;22.54;36.46
48848;BME280;36611;51.638;5.784;2023-04-20T05:15:44;101835.13;;;22.55;36.30
48848;BME280;36611;51.638;5.784;2023-04-20T05:18:11;101835.13;;;22.55;36.33
48848;BME280;36611;51.638;5.784;2023-04-20T05:20:37;101835.97;;;22.55;36.46
48848;BME280;36611;51.638;5.784;2023-04-20T05:23:04;101832.38;;;22.55;36.42
48848;BME280;36611;51.638;5.784;2023-04-20T05:25:30;101830.50;;;22.55;36.33
48848;BME280;36611;51.638;5.784;2023-04-20T05:27:58;101837.69;;;22.56;36.32
48848;BME280;36611;51.638;5.784;2023-04-20T05:30:24;101827.75;;;22.55;36.45
48848;BME280;36611;51.638;5.784;2023-04-20T05:32:51;101832.22;;;22.56;36.40
48848;BME280;36611;51.638;5.784;2023-04-20T05:35:19;101822.13;;;22.57;36.57
48848;BME280;36611;51.638;5.784;2023-04-20T05:37:45;101821.25;;;22.56;36.53
48848;BME280;36611;51.638;5.784;2023-04-20T05:40:13;101829.47;;;22.56;36.46
48848;BME280;36611;51.638;5.784;2023-04-20T05:42:40;101821.25;;;22.56;36.42
48848;BME280;36611;51.638;5.784;2023-04-20T05:45:07;101818.53;;;22.56;36.08
48848;BME280;36611;51.638;5.784;2023-04-20T05:47:34;101821.25;;;22.56;36.34
48848;BME280;36611;51.638;5.784;2023-04-20T05:50:00;101822.13;;;22.57;36.35
48848;BME280;36611;51.638;5.784;2023-04-20T05:52:27;101810.31;;;22.56;36.07
48848;BME280;36611;51.638;5.784;2023-04-20T05:54:54;101810.31;;;22.56;36.45
48848;BME280;36611;51.638;5.784;2023-04-20T05:57:20;101818.53;;;22.56;36.37
48848;BME280;36611;51.638;5.784;2023-04-20T05:59:50;101818.53;;;22.56;36.09
48848;BME280;36611;51.638;5.784;2023-04-20T06:02:16;101815.78;;;22.56;36.35
48848;BME280;36611;51.638;5.784;2023-04-20T06:04:43;101816.66;;;22.57;36.45
48848;BME280;36611;51.638;5.784;2023-04-20T06:07:10;101816.66;;;22.57;36.47
48848;BME280;36611;51.638;5.784;2023-04-20T06:09:36;101823.13;;;22.56;36.26
48848;BME280;36611;51.638;5.784;2023-04-20T06:12:03;101821.25;;;22.56;36.17
48848;BME280;36611;51.638;5.784;2023-04-20T06:14:30;101824.16;;;22.55;36.25
48848;BME280;36611;51.638;5.784;2023-04-20T06:16:56;101820.41;;;22.56;35.92
48848;BME280;36611;51.638;5.784;2023-04-20T06:19:23;101816.81;;;22.55;36.02
48848;BME280;36611;51.638;5.784;2023-04-20T06:21:49;101815.09;;;22.54;36.29
48848;BME280;36611;51.638;5.784;2023-04-20T06:24:16;101815.09;;;22.54;36.54
48848;BME280;36611;51.638;5.784;2023-04-20T06:26:42;101806.88;;;22.54;36.33
48848;BME280;36611;51.638;5.784;2023-04-20T06:29:09;101805.16;;;22.53;36.46
48848;BME280;36611;51.638;5.784;2023-04-20T06:31:35;101801.41;;;22.54;36.06
48848;BME280;36611;51.638;5.784;2023-04-20T06:34:02;101805.16;;;22.53;36.08
48848;BME280;36611;51.638;5.784;2023-04-20T06:36:28;101810.63;;;22.53;36.27
48848;BME280;36611;51.638;5.784;2023-04-20T06:38:55;101820.72;;;22.52;36.29
48848;BME280;36611;51.638;5.784;2023-04-20T06:41:22;101809.78;;;22.52;36.28
48848;BME280;36611;51.638;5.784;2023-04-20T06:43:49;101810.63;;;22.53;36.35
48848;BME280;36611;51.638;5.784;2023-04-20T06:46:16;101808.91;;;22.52;36.24
48848;BME280;36611;51.638;5.784;2023-04-20T06:48:43;101806.19;;;22.52;36.33
48848;BME280;36611;51.638;5.784;2023-04-20T06:51:11;101811.50;;;22.54;36.46
48848;BME280;36611;51.638;5.784;2023-04-20T06:53:38;101809.78;;;22.52;36.41
48848;BME280;36611;51.638;5.784;2023-04-20T06:56:05;101806.19;;;22.52;36.06
48848;BME280;36611;51.638;5.784;2023-04-20T06:58:31;101807.91;;;22.53;36.34
48848;BME280;36611;51.638;5.784;2023-04-20T07:00:58;101792.50;;;22.52;36.13
48848;BME280;36611;51.638;5.784;2023-04-20T07:03:24;101803.44;;;22.52;36.30
48848;BME280;36611;51.638;5.784;2023-04-20T07:05:51;101802.44;;;22.53;36.05
48848;BME280;36611;51.638;5.784;2023-04-20T07:08:18;101808.75;;;22.54;35.81
48848;BME280;36611;51.638;5.784;2023-04-20T07:10:45;101805.16;;;22.53;36.34
48848;BME280;36611;51.638;5.784;2023-04-20T07:13:11;101802.59;;;22.51;36.41
48848;BME280;36611;51.638;5.784;2023-04-20T07:15:38;101802.44;;;22.53;36.06
48848;BME280;36611;51.638;5.784;2023-04-20T07:18:04;101802.44;;;22.53;35.93
48848;BME280;36611;51.638;5.784;2023-04-20T07:20:31;101800.53;;;22.54;36.08
48848;BME280;36611;51.638;5.784;2023-04-20T07:22:58;101796.09;;;22.52;36.16
48848;BME280;36611;51.638;5.784;2023-04-20T07:25:24;101792.34;;;22.54;36.38
48848;BME280;36611;51.638;5.784;2023-04-20T07:27:51;101796.94;;;22.53;36.15
48848;BME280;36611;51.638;5.784;2023-04-20T07:30:18;101790.63;;;22.52;36.09
48848;BME280;36611;51.638;5.784;2023-04-20T07:32:44;101785.84;;;22.55;36.12
48848;BME280;36611;51.638;5.784;2023-04-20T07:35:11;101795.06;;;22.54;36.16
48848;BME280;36611;51.638;5.784;2023-04-20T07:37:37;101797.81;;;22.54;36.02
48848;BME280;36611;51.638;5.784;2023-04-20T07:40:04;101804.13;;;22.54;36.46
48848;BME280;36611;51.638;5.784;2023-04-20T07:42:33;101797.66;;;22.55;36.28
48848;BME280;36611;51.638;5.784;2023-04-20T07:45:00;101803.97;;;22.56;36.03
48848;BME280;36611;51.638;5.784;2023-04-20T07:47:26;101796.78;;;22.55;36.29
48848;BME280;36611;51.638;5.784;2023-04-20T07:49:53;101805.84;;;22.55;36.32
48848;BME280;36611;51.638;5.784;2023-04-20T07:52:20;101804.84;;;22.56;36.31
48848;BME280;36611;51.638;5.784;2023-04-20T07:54:46;101802.09;;;22.56;36.29
48848;BME280;36611;51.638;5.784;2023-04-20T07:57:13;101802.09;;;22.56;36.01
48848;BME280;36611;51.638;5.784;2023-04-20T07:59:40;101810.31;;;22.56;36.29
48848;BME280;36611;51.638;5.784;2023-04-20T08:02:07;101813.91;;;22.57;35.95
48848;BME280;36611;51.638;5.784;2023-04-20T08:04:35;101805.69;;;22.57;36.01
48848;BME280;36611;51.638;5.784;2023-04-20T08:07:03;101803.81;;;22.57;36.17
48848;BME280;36611;51.638;5.784;2023-04-20T08:09:30;101804.84;;;22.56;35.97
48848;BME280;36611;51.638;5.784;2023-04-20T08:11:56;101804.84;;;22.56;36.09
48848;BME280;36611;51.638;5.784;2023-04-20T08:14:23;101804.84;;;22.56;36.28
48848;BME280;36611;51.638;5.784;2023-04-20T08:16:49;101794.91;;;22.55;36.29
48848;BME280;36611;51.638;5.784;2023-04-20T08:19:16;101799.34;;;22.56;35.93
48848;BME280;36611;51.638;5.784;2023-04-20T08:21:43;101787.56;;;22.56;35.93
48848;BME280;36611;51.638;5.784;2023-04-20T08:24:10;101789.44;;;22.55;36.39
48848;BME280;36611;51.638;5.784;2023-04-20T08:26:38;101798.50;;;22.56;36.01
48848;BME280;36611;51.638;5.784;2023-04-20T08:29:04;101786.69;;;22.55;36.05
48848;BME280;36611;51.638;5.784;2023-04-20T08:31:31;101776.75;;;22.54;36.33
48848;BME280;36611;51.638;5.784;2023-04-20T08:33:58;101791.47;;;22.53;35.76
48848;BME280;36611;51.638;5.784;2023-04-20T08:36:24;101785.84;;;22.55;35.79
48848;BME280;36611;51.638;5.784;2023-04-20T08:39:04;101799.53;;;22.55;36.14
48848;BME280;36611;51.638;5.784;2023-04-20T08:41:31;101781.38;;;22.54;36.24
48848;BME280;36611;51.638;5.784;2023-04-20T08:43:58;101784.13;;;22.54;36.08
48848;BME280;36611;51.638;5.784;2023-04-20T08:46:24;101780.34;;;22.55;36.11
48848;BME280;36611;51.638;5.784;2023-04-20T08:48:52;101773.16;;;22.54;35.90
48848;BME280;36611;51.638;5.784;2023-04-20T08:51:20;101780.34;;;22.55;36.11
48848;BME280;36611;51.638;5.784;2023-04-20T08:53:47;101782.25;;;22.54;36.02
48848;BME280;36611;51.638;5.784;2023-04-20T08:56:14;101770.44;;;22.54;35.98
48848;BME280;36611;51.638;5.784;2023-04-20T08:58:40;101777.78;;;22.53;36.13
48848;BME280;36611;51.638;5.784;2023-04-20T09:01:10;101776.75;;;22.54;35.86
48848;BME280;36611;51.638;5.784;2023-04-20T09:03:42;101778.81;;;22.52;36.11
48848;BME280;36611;51.638;5.784;2023-04-20T09:06:14;101775.91;;;22.54;35.91
48848;BME280;36611;51.638;5.784;2023-04-20T09:08:42;101769.56;;;22.53;36.31
48848;BME280;36611;51.638;5.784;2023-04-20T09:14:03;101765.97;;;22.52;36.30
48848;BME280;36611;51.638;5.784;2023-04-20T09:16:32;101768.88;;;22.51;35.94
48848;BME280;36611;51.638;5.784;2023-04-20T09:19:00;101763.41;;;22.51;36.16
48848;BME280;36611;51.638;5.784;2023-04-20T09:21:27;101775.03;;;22.53;35.99
48848;BME280;36611;51.638;5.784;2023-04-20T09:24:03;101765.97;;;22.52;36.15
48848;BME280;36611;51.638;5.784;2023-04-20T09:26:32;101765.13;;;22.52;35.91
48848;BME280;36611;51.638;5.784;2023-04-20T09:29:03;101766.84;;;22.53;36.12
48848;BME280;36611;51.638;5.784;2023-04-20T09:31:41;101767.00;;;22.51;36.03
48848;BME280;36611;51.638;5.784;2023-04-20T09:34:07;101767.00;;;22.51;36.37
48848;BME280;36611;51.638;5.784;2023-04-20T09:36:39;101758.63;;;22.53;35.87
48848;BME280;36611;51.638;5.784;2023-04-20T09:39:13;101755.03;;;22.52;36.29
48848;BME280;36611;51.638;5.784;2023-04-20T09:41:43;101753.31;;;22.51;35.92
48848;BME280;36611;51.638;5.784;2023-04-20T09:44:11;101751.44;;;22.52;35.82
48848;BME280;36611;51.638;5.784;2023-04-20T09:46:39;101754.16;;;22.52;35.87
48848;BME280;36611;51.638;5.784;2023-04-20T09:49:08;101755.03;;;22.52;36.05
48848;BME280;36611;51.638;5.784;2023-04-20T09:51:37;101751.44;;;22.52;35.92
48848;BME280;36611;51.638;5.784;2023-04-20T09:54:05;101759.66;;;22.52;36.03
48848;BME280;36611;51.638;5.784;2023-04-20T09:56:33;101747.84;;;22.51;35.93
48848;BME280;36611;51.638;5.784;2023-04-20T09:59:01;101751.44;;;22.52;36.04
48848;BME280;36611;51.638;5.784;2023-04-20T10:01:31;101749.72;;;22.51;36.28
48848;BME280;36611;51.638;5.784;2023-04-20T10:04:01;101745.09;;;22.51;36.05
48848;BME280;36611;51.638;5.784;2023-04-20T10:06:31;101741.50;;;22.51;35.98
48848;BME280;36611;51.638;5.784;2023-04-20T10:09:01;101738.78;;;22.51;36.13
48848;BME280;36611;51.638;5.784;2023-04-20T10:11:30;101736.88;;;22.51;35.97
48848;BME280;36611;51.638;5.784;2023-04-20T10:14:22;101740.47;;;22.52;36.13
48848;BME280;36611;51.638;5.784;2023-04-20T10:17:02;101742.38;;;22.51;36.10
48848;BME280;36611;51.638;5.784;2023-04-20T10:19:44;101729.69;;;22.50;35.93
48848;BME280;36611;51.638;5.784;2023-04-20T10:22:12;101734.31;;;22.50;35.93
48848;BME280;36611;51.638;5.784;2023-04-20T10:24:50;101724.38;;;22.49;36.21
48848;BME280;36611;51.638;5.784;2023-04-20T10:27:18;101728.84;;;22.50;35.95
48848;BME280;36611;51.638;5.784;2023-04-20T10:29:45;101723.38;;;22.50;36.17
48848;BME280;36611;51.638;5.784;2023-04-20T10:32:27;101717.03;;;22.49;35.81
48848;BME280;36611;51.638;5.784;2023-04-20T10:35:09;101716.88;;;22.51;36.18
48848;BME280;36611;51.638;5.784;2023-04-20T10:37:49;101712.25;;;22.51;36.25
48848;BME280;36611;51.638;5.784;2023-04-20T10:40:24;101708.66;;;22.51;36.00
48848;BME280;36611;51.638;5.784;2023-04-20T10:42:52;101697.69;;;22.51;36.17
48848;BME280;36611;51.638;5.784;2023-04-20T10:45:19;101698.41;;;22.53;36.18
48848;BME280;36611;51.638;5.784;2023-04-20T10:47:47;101695.66;;;22.53;35.98
48848;BME280;36611;51.638;5.784;2023-04-20T10:50:14;101700.97;;;22.55;35.84
48848;BME280;36611;51.638;5.784;2023-04-20T10:52:42;101698.06;;;22.56;35.91
48848;BME280;36611;51.638;5.784;2023-04-20T10:55:21;101708.16;;;22.56;36.04
48848;BME280;36611;51.638;5.784;2023-04-20T10:57:48;101699.09;;;22.55;35.89
48848;BME280;36611;51.638;5.784;2023-04-20T11:00:16;101691.72;;;22.56;35.96
48848;BME280;36611;51.638;5.784;2023-04-20T11:02:51;101685.22;;;22.57;36.13
48848;BME280;36611;51.638;5.784;2023-04-20T11:05:18;101679.41;;;22.51;36.22
48848;BME280;36611;51.638;5.784;2023-04-20T11:07:56;101680.25;;;22.52;35.89
48848;BME280;36611;51.638;5.784;2023-04-20T11:10:37;101683.69;;;22.54;36.25
48848;BME280;36611;51.638;5.784;2023-04-20T11:13:04;101674.63;;;22.54;35.86
48848;BME280;36611;51.638;5.784;2023-04-20T11:15:34;101675.47;;;22.54;35.98
48848;BME280;36611;51.638;5.784;2023-04-20T11:18:08;101676.31;;;22.55;36.14
48848;BME280;36611;51.638;5.784;2023-04-20T11:20:35;101677.34;;;22.54;35.96
48848;BME280;36611;51.638;5.784;2023-04-20T11:23:02;101672.72;;;22.54;35.77
48848;BME280;36611;51.638;5.784;2023-04-20T11:25:30;101673.59;;;22.55;36.08
48848;BME280;36611;51.638;5.784;2023-04-20T11:28:07;101666.22;;;22.55;35.77
48848;BME280;36611;51.638;5.784;2023-04-20T11:30:41;101666.22;;;22.55;36.08
48848;BME280;36611;51.638;5.784;2023-04-20T11:33:08;101670.00;;;22.54;35.83
48848;BME280;36611;51.638;5.784;2023-04-20T11:35:36;101663.66;;;22.54;35.75
48848;BME280;36611;51.638;5.784;2023-04-20T11:38:03;101661.78;;;22.54;35.99
48848;BME280;36611;51.638;5.784;2023-04-20T11:40:30;101662.81;;;22.53;36.12
48848;BME280;36611;51.638;5.784;2023-04-20T11:42:57;101658.19;;;22.54;35.67
48848;BME280;36611;51.638;5.784;2023-04-20T11:45:25;101663.66;;;22.54;36.06
48848;BME280;36611;51.638;5.784;2023-04-20T11:47:53;101662.97;;;22.51;36.09
48848;BME280;36611;51.638;5.784;2023-04-20T11:50:21;101672.03;;;22.52;35.69
48848;BME280;36611;51.638;5.784;2023-04-20T11:52:47;101664.00;;;22.50;35.85
48848;BME280;36611;51.638;5.784;2023-04-20T11:55:14;101680.41;;;22.50;35.81
48848;BME280;36611;51.638;5.784;2023-04-20T11:57:41;101666.72;;;22.50;35.88
48848;BME280;36611;51.638;5.784;2023-04-20T12:00:08;101667.59;;;22.51;36.12
48848;BME280;36611;51.638;5.784;2023-04-20T12:02:40;101656.81;;;22.49;36.04
48848;BME280;36611;51.638;5.784;2023-04-20T12:05:07;101655.94;;;22.49;36.07
48848;BME280;36611;51.638;5.784;2023-04-20T12:07:34;101653.22;;;22.49;35.84
48848;BME280;36611;51.638;5.784;2023-04-20T12:10:01;101649.44;;;22.50;36.18
48848;BME280;36611;51.638;5.784;2023-04-20T12:12:27;101646.88;;;22.48;36.07
48848;BME280;36611;51.638;5.784;2023-04-20T12:14:54;101643.13;;;22.49;35.99
48848;BME280;36611;51.638;5.784;2023-04-20T12:17:20;101643.13;;;22.49;35.99
48848;BME280;36611;51.638;5.784;2023-04-20T12:19:47;101634.75;;;22.51;35.95
48848;BME280;36611;51.638;5.784;2023-04-20T12:22:14;101627.56;;;22.50;36.02
48848;BME280;36611;51.638;5.784;2023-04-20T12:24:40;101630.13;;;22.51;35.87
48848;BME280;36611;51.638;5.784;2023-04-20T12:27:07;101633.72;;;22.52;35.83
48848;BME280;36611;51.638;5.784;2023-04-20T12:29:33;101626.38;;;22.52;36.15
48848;BME280;36611;51.638;5.784;2023-04-20T12:32:00;101630.81;;;22.54;35.99
48848;BME280;36611;51.638;5.784;2023-04-20T12:34:26;101629.97;;;22.53;35.98
48848;BME280;36611;51.638;5.784;2023-04-20T12:36:53;101636.28;;;22.54;35.79
48848;BME280;36611;51.638;5.784;2023-04-20T12:39:19;101626.19;;;22.54;35.74
48848;BME280;36611;51.638;5.784;2023-04-20T12:41:46;101617.97;;;22.54;35.85
48848;BME280;36611;51.638;5.784;2023-04-20T12:44:12;101616.97;;;22.55;35.80
48848;BME280;36611;51.638;5.784;2023-04-20T12:46:39;101619.69;;;22.55;35.99
48848;BME280;36611;51.638;5.784;2023-04-20T12:49:05;101627.91;;;22.55;35.78
48848;BME280;36611;51.638;5.784;2023-04-20T12:51:32;101628.75;;;22.56;35.78
48848;BME280;36611;51.638;5.784;2023-04-20T12:53:58;101628.75;;;22.56;35.86
48848;BME280;36611;51.638;5.784;2023-04-20T12:56:25;101629.63;;;22.56;35.71
48848;BME280;36611;51.638;5.784;2023-04-20T12:58:52;101623.28;;;22.56;35.91